createdAt,value
2022-12-03T00:00:53.018Z,0.46
2022-12-03T00:03:26.863Z,0.48
2022-12-03T00:05:58.695Z,0.51
2022-12-03T00:08:30.229Z,0.52
2022-12-03T00:11:01.803Z,0.53
2022-12-03T00:13:33.514Z,0.54
2022-12-03T00:16:05.553Z,0.55
2022-12-03T00:18:37.121Z,0.56
2022-12-03T00:21:09.271Z,0.55
2022-12-03T00:23:42.466Z,0.56
2022-12-03T00:26:12.801Z,0.58
2022-12-03T00:28:44.404Z,0.60
2022-12-03T00:31:16.149Z,0.61
2022-12-03T00:33:47.778Z,0.61
2022-12-03T00:36:20.080Z,0.60
2022-12-03T00:38:51.748Z,0.58
2022-12-03T00:41:23.237Z,0.57
2022-12-03T00:43:57.477Z,0.61
2022-12-03T00:46:29.454Z,0.63
2022-12-03T00:49:01.175Z,0.63
2022-12-03T00:51:32.786Z,0.63
2022-12-03T00:54:04.532Z,0.62
2022-12-03T00:56:36.042Z,0.57
2022-12-03T00:59:07.523Z,0.58
2022-12-03T01:01:39.110Z,0.59
2022-12-03T01:04:10.771Z,0.60
2022-12-03T01:06:42.475Z,0.60
2022-12-03T01:09:14.098Z,0.59
2022-12-03T01:11:45.608Z,0.61
2022-12-03T01:14:19.708Z,0.62
2022-12-03T01:16:51.483Z,0.62
2022-12-03T01:19:24.234Z,0.65
2022-12-03T01:21:56.188Z,0.65
2022-12-03T01:24:27.961Z,0.65
2022-12-03T01:26:59.500Z,0.65
2022-12-03T01:29:31.053Z,0.64
2022-12-03T01:32:19.450Z,0.63
2022-12-03T01:34:53.299Z,0.67
2022-12-03T01:37:26.939Z,0.67
2022-12-03T01:39:58.633Z,0.69
2022-12-03T01:42:34.344Z,0.71
2022-12-03T01:45:07.627Z,0.71
2022-12-03T01:47:41.324Z,0.73
2022-12-03T01:50:20.565Z,0.75
2022-12-03T01:52:52.201Z,0.74
2022-12-03T01:55:26.000Z,0.75
2022-12-03T01:58:00.656Z,0.77
2022-12-03T02:00:32.681Z,0.76
2022-12-03T02:03:12.520Z,0.73
2022-12-03T02:05:44.137Z,0.67
2022-12-03T02:08:33.599Z,0.63
2022-12-03T02:11:09.306Z,0.64
2022-12-03T02:13:41.053Z,0.70
2022-12-03T02:16:12.802Z,0.72
2022-12-03T02:18:44.969Z,0.73
2022-12-03T02:21:25.088Z,0.76
2022-12-03T02:24:05.198Z,0.78
2022-12-03T02:26:36.713Z,0.81
2022-12-03T02:29:08.451Z,0.81
2022-12-03T02:31:40.117Z,0.77
2022-12-03T02:34:12.691Z,0.78
2022-12-03T02:36:44.210Z,0.78
2022-12-03T02:39:15.702Z,0.77
2022-12-03T02:42:05.040Z,0.80
2022-12-03T02:44:36.842Z,0.78
2022-12-03T02:47:08.548Z,0.83
2022-12-03T02:49:40.512Z,0.84
2022-12-03T02:52:12.149Z,0.84
2022-12-03T02:54:44.158Z,0.80
2022-12-03T02:57:16.144Z,0.81
2022-12-03T02:59:48.632Z,0.85
2022-12-03T03:02:21.600Z,0.86
2022-12-03T03:04:53.915Z,0.86
2022-12-03T03:07:26.076Z,0.89
2022-12-03T03:09:58.903Z,0.88
2022-12-03T03:12:32.628Z,0.90
2022-12-03T03:15:11.162Z,0.91
2022-12-03T03:17:43.828Z,0.93
2022-12-03T03:20:16.401Z,0.91
2022-12-03T03:22:48.060Z,0.91
2022-12-03T03:25:22.445Z,0.93
2022-12-03T03:27:54.007Z,0.95
2022-12-03T03:30:25.515Z,0.93
2022-12-03T03:32:57.430Z,0.93
2022-12-03T03:35:29.696Z,0.93
2022-12-03T03:38:01.548Z,0.92
2022-12-03T03:40:33.370Z,0.94
2022-12-03T03:43:05.704Z,0.96
2022-12-03T03:45:37.424Z,0.94
2022-12-03T03:48:09.594Z,0.93
2022-12-03T03:50:41.832Z,0.93
2022-12-03T03:53:14.078Z,0.92
2022-12-03T03:55:46.058Z,0.93
2022-12-03T03:58:17.891Z,0.93
2022-12-03T04:00:49.528Z,0.95
2022-12-03T04:03:21.137Z,0.95
2022-12-03T04:05:52.717Z,0.94
2022-12-03T04:08:24.237Z,0.96
2022-12-03T04:11:13.060Z,0.96
2022-12-03T04:13:44.677Z,0.95
2022-12-03T04:16:16.196Z,0.92
2022-12-03T04:18:47.926Z,0.92
2022-12-03T04:21:39.167Z,0.92
2022-12-03T04:24:12.484Z,0.93
2022-12-03T04:27:01.945Z,0.95
2022-12-03T04:29:33.490Z,0.89
2022-12-03T04:32:22.638Z,0.83
2022-12-03T04:35:11.735Z,0.77
2022-12-03T04:37:43.622Z,0.74
2022-12-03T04:40:29.844Z,0.75
2022-12-03T04:43:01.339Z,0.76
2022-12-03T04:45:32.897Z,0.75
2022-12-03T04:48:04.654Z,0.72
2022-12-03T04:50:36.215Z,0.75
2022-12-03T04:53:07.772Z,0.78
2022-12-03T04:55:39.257Z,0.81
2022-12-03T04:58:11.432Z,0.83
2022-12-03T05:00:42.997Z,0.86
2022-12-03T05:03:14.549Z,0.86
2022-12-03T05:05:47.572Z,0.85
2022-12-03T05:08:19.120Z,0.89
2022-12-03T05:10:50.775Z,0.92
2022-12-03T05:13:22.316Z,0.91
2022-12-03T05:15:53.927Z,0.91
2022-12-03T05:18:25.521Z,0.89
2022-12-03T05:20:57.252Z,0.88
2022-12-03T05:23:28.880Z,0.89
2022-12-03T05:26:00.494Z,0.84
2022-12-03T05:28:32.198Z,0.80
2022-12-03T05:31:05.221Z,0.80
2022-12-03T05:33:42.456Z,0.83
2022-12-03T05:36:15.867Z,0.80
2022-12-03T05:38:47.579Z,0.83
2022-12-03T05:41:36.930Z,0.81
2022-12-03T05:44:08.700Z,0.78
2022-12-03T05:46:40.251Z,0.76
2022-12-03T05:49:11.815Z,0.69
2022-12-03T05:51:43.303Z,0.68
2022-12-03T05:54:14.783Z,0.62
2022-12-03T05:56:46.345Z,0.57
2022-12-03T05:59:17.970Z,0.58
2022-12-03T06:01:49.627Z,0.56
2022-12-03T06:04:21.241Z,0.53
2022-12-03T06:06:52.764Z,0.51
2022-12-03T06:09:24.286Z,0.50
2022-12-03T06:11:55.915Z,0.48
2022-12-03T06:14:30.112Z,0.45
2022-12-03T06:17:01.631Z,0.42
2022-12-03T06:19:33.585Z,0.35
2022-12-03T06:22:05.128Z,0.27
2022-12-03T06:24:36.614Z,0.25
2022-12-03T06:27:08.456Z,0.28
2022-12-03T06:29:40.206Z,0.31
2022-12-03T06:32:12.377Z,0.32
2022-12-03T06:34:43.889Z,0.33
2022-12-03T06:37:15.413Z,0.30
2022-12-03T06:39:46.956Z,0.25
2022-12-03T06:42:18.502Z,0.24
2022-12-03T06:44:49.971Z,0.24
2022-12-03T06:47:21.488Z,0.23
2022-12-03T06:49:52.968Z,0.21
2022-12-03T06:52:24.433Z,0.18
2022-12-03T06:54:56.219Z,0.17
2022-12-03T06:57:28.102Z,0.15
2022-12-03T06:59:59.623Z,0.17
2022-12-03T07:02:31.184Z,0.17
2022-12-03T07:05:03.006Z,0.16
2022-12-03T07:07:34.644Z,0.15
2022-12-03T07:10:07.853Z,0.21
2022-12-03T07:12:39.358Z,0.23
2022-12-03T07:15:12.319Z,0.19
2022-12-03T07:17:43.898Z,0.19
2022-12-03T07:20:16.758Z,0.21
2022-12-03T07:22:48.293Z,0.20
2022-12-03T07:25:23.463Z,0.16
2022-12-03T07:27:55.513Z,0.15
2022-12-03T07:30:27.910Z,0.12
2022-12-03T07:32:59.669Z,0.13
2022-12-03T07:35:31.297Z,0.12
2022-12-03T07:38:02.933Z,0.12
2022-12-03T07:40:34.479Z,0.14
2022-12-03T07:43:06.133Z,0.18
2022-12-03T07:45:37.668Z,0.24
2022-12-03T07:48:09.304Z,0.27
2022-12-03T07:50:40.895Z,0.30
2022-12-03T07:53:12.418Z,0.31
2022-12-03T07:55:43.958Z,0.37
2022-12-03T07:58:15.495Z,0.34
2022-12-03T08:00:47.020Z,0.33
2022-12-03T08:03:18.584Z,0.29
2022-12-03T08:05:50.129Z,0.27
2022-12-03T08:08:21.791Z,0.27
2022-12-03T08:10:53.284Z,0.30
2022-12-03T08:13:24.803Z,0.28
2022-12-03T08:15:58.872Z,0.29
2022-12-03T08:18:31.130Z,0.31
2022-12-03T08:21:02.903Z,0.33
2022-12-03T08:23:35.578Z,0.33
2022-12-03T08:26:14.151Z,0.33
2022-12-03T08:28:45.765Z,0.37
2022-12-03T08:31:25.786Z,0.37
2022-12-03T08:34:16.692Z,0.40
2022-12-03T08:36:52.262Z,0.37
2022-12-03T08:39:33.479Z,0.28
2022-12-03T08:42:35.500Z,0.28
2022-12-03T08:45:35.276Z,0.32
2022-12-03T08:51:22.249Z,0.26
2022-12-03T08:54:12.894Z,0.28
2022-12-03T08:59:36.427Z,0.19
2022-12-03T09:02:19.860Z,0.16
2022-12-03T09:04:53.317Z,0.12
2022-12-03T09:07:25.349Z,0.07
2022-12-03T09:09:57.297Z,0.10
2022-12-03T09:12:28.919Z,0.14
2022-12-03T09:15:00.474Z,0.17
2022-12-03T09:17:32.266Z,0.21
2022-12-03T09:20:05.414Z,0.29
2022-12-03T09:22:36.937Z,0.28
2022-12-03T09:25:09.776Z,0.34
2022-12-03T09:27:41.315Z,0.36
2022-12-03T09:30:14.505Z,0.39
2022-12-03T09:32:46.085Z,0.43
2022-12-03T09:35:17.846Z,0.42
2022-12-03T09:37:49.440Z,0.47
2022-12-03T09:40:21.477Z,0.49
2022-12-03T09:42:53.703Z,0.51
2022-12-03T09:45:25.284Z,0.54
2022-12-03T09:47:57.716Z,0.59
2022-12-03T09:50:29.719Z,0.58
2022-12-03T09:53:04.579Z,0.55
2022-12-03T09:55:36.437Z,0.54
2022-12-03T09:58:13.475Z,0.61
2022-12-03T10:00:48.137Z,0.66
2022-12-03T10:03:29.454Z,0.71
2022-12-03T10:06:01.517Z,0.73
2022-12-03T10:08:33.500Z,0.80
2022-12-03T10:11:05.105Z,0.85
2022-12-03T10:13:38.594Z,0.90
2022-12-03T10:16:13.492Z,0.94
2022-12-03T10:18:48.531Z,0.95
2022-12-03T10:24:27.026Z,0.98
2022-12-03T10:27:00.612Z,0.98
2022-12-03T10:29:34.219Z,0.93
2022-12-03T10:38:03.409Z,0.93
2022-12-03T10:40:36.960Z,0.90
2022-12-03T10:43:24.387Z,0.89
2022-12-03T10:46:13.615Z,0.88
2022-12-03T10:48:45.229Z,0.95
2022-12-03T10:51:21.257Z,1.05
2022-12-03T10:53:54.301Z,1.11
2022-12-03T10:56:27.823Z,1.18
2022-12-03T10:58:58.321Z,1.22
2022-12-03T11:04:36.842Z,1.20
2022-12-03T11:10:13.948Z,1.02
2022-12-03T11:13:05.991Z,0.94
2022-12-03T11:15:46.237Z,0.96
2022-12-03T11:19:03.228Z,1.05
2022-12-03T11:21:34.905Z,1.18
2022-12-03T11:24:21.732Z,1.21
2022-12-03T11:27:25.481Z,1.27
2022-12-03T11:30:02.433Z,1.21
2022-12-03T11:33:06.432Z,1.15
2022-12-03T11:36:15.478Z,1.09
2022-12-03T11:39:03.918Z,1.20
2022-12-03T11:41:36.821Z,1.31
2022-12-03T11:44:32.216Z,1.42
2022-12-03T11:47:14.753Z,1.52
2022-12-03T11:49:50.198Z,1.56
2022-12-03T11:55:34.398Z,1.50
2022-12-03T11:58:14.508Z,1.45
2022-12-03T12:01:04.794Z,1.46
2022-12-03T12:03:39.636Z,1.55
2022-12-03T12:06:13.403Z,1.71
2022-12-03T12:08:58.534Z,1.86
2022-12-03T12:11:31.879Z,2.00
2022-12-03T12:14:04.806Z,2.08
2022-12-03T12:16:51.699Z,2.12
2022-12-03T12:22:32.454Z,2.01
2022-12-03T12:25:06.088Z,1.99
2022-12-03T12:27:45.347Z,1.96
2022-12-03T12:30:18.518Z,1.94
2022-12-03T12:32:52.613Z,1.90
2022-12-03T12:35:35.328Z,1.80
2022-12-03T12:38:18.762Z,1.75
2022-12-03T12:40:53.530Z,1.65
2022-12-03T12:43:31.890Z,1.61
2022-12-03T12:46:46.035Z,1.56
2022-12-03T12:49:12.255Z,1.51
2022-12-03T12:54:36.042Z,1.61
2022-12-03T12:57:14.053Z,1.62
2022-12-03T12:59:45.640Z,1.62
2022-12-03T13:02:39.525Z,1.57
2022-12-03T13:08:10.111Z,1.43
2022-12-03T13:10:43.464Z,1.45
2022-12-03T13:16:12.971Z,1.49
2022-12-03T13:18:48.025Z,1.47
2022-12-03T13:27:48.415Z,1.14
2022-12-03T13:30:24.955Z,1.05
2022-12-03T13:33:07.639Z,0.98
2022-12-03T13:38:29.129Z,0.93
2022-12-03T13:41:07.081Z,0.88
2022-12-03T13:43:44.532Z,0.84
2022-12-03T13:49:16.776Z,0.86
2022-12-03T13:51:48.973Z,0.86
2022-12-03T13:54:24.928Z,0.83
2022-12-03T13:59:45.974Z,0.76
2022-12-03T14:02:17.614Z,0.78
2022-12-03T14:04:55.362Z,0.76
2022-12-03T14:07:30.521Z,0.71
2022-12-03T14:10:02.204Z,0.70
2022-12-03T14:12:37.992Z,0.70
2022-12-03T14:15:11.500Z,0.74
2022-12-03T14:17:41.504Z,0.75
2022-12-03T14:20:14.604Z,0.79
2022-12-03T14:22:46.395Z,0.80
2022-12-03T14:25:29.655Z,0.77
2022-12-03T14:28:01.392Z,0.71
2022-12-03T14:30:32.925Z,0.66
2022-12-03T14:33:04.441Z,0.61
2022-12-03T14:35:36.007Z,0.57
2022-12-03T14:38:07.559Z,0.55
2022-12-03T14:40:40.314Z,0.54
2022-12-03T14:48:43.993Z,0.45
2022-12-03T14:51:25.710Z,0.47
2022-12-03T14:53:57.204Z,0.51
2022-12-03T14:56:34.443Z,0.55
2022-12-03T14:59:07.131Z,0.57
2022-12-03T15:01:38.841Z,0.60
2022-12-03T15:06:57.153Z,0.59
2022-12-03T15:09:28.692Z,0.62
2022-12-03T15:14:46.209Z,0.58
2022-12-03T15:20:10.227Z,0.56
2022-12-03T15:22:41.818Z,0.57
2022-12-03T15:25:13.665Z,0.57
2022-12-03T15:27:45.252Z,0.57
2022-12-03T15:30:17.629Z,0.57
2022-12-03T15:35:39.421Z,0.53
2022-12-03T15:43:55.028Z,0.38
2022-12-03T15:46:28.217Z,0.39
2022-12-03T15:49:12.870Z,0.41
2022-12-03T15:54:45.407Z,0.44
2022-12-03T16:00:15.577Z,0.50
2022-12-03T16:02:52.646Z,0.51
2022-12-03T16:05:27.660Z,0.52
2022-12-03T16:07:59.247Z,0.57
2022-12-03T16:13:17.603Z,0.61
2022-12-03T16:15:49.270Z,0.63
2022-12-03T16:18:20.971Z,0.69
2022-12-03T16:20:52.500Z,0.73
2022-12-03T16:23:35.523Z,0.73
2022-12-03T16:26:10.183Z,0.70
2022-12-03T16:28:41.947Z,0.67
2022-12-03T16:31:14.068Z,0.69
2022-12-03T16:33:45.674Z,0.72
2022-12-03T16:36:17.857Z,0.76
2022-12-03T16:41:34.795Z,0.75
2022-12-03T16:44:06.628Z,0.75
2022-12-03T16:49:24.781Z,0.76
2022-12-03T16:54:47.653Z,0.77
2022-12-03T17:00:11.626Z,0.73
2022-12-03T17:02:43.312Z,0.78
2022-12-03T17:05:15.200Z,0.78
2022-12-03T17:07:46.802Z,0.78
2022-12-03T17:10:18.481Z,0.77
2022-12-03T17:15:42.196Z,0.80
2022-12-03T17:18:13.927Z,0.79
2022-12-03T17:20:45.507Z,0.77
2022-12-03T17:23:18.516Z,0.74
2022-12-03T17:25:49.987Z,0.78
2022-12-03T17:28:21.525Z,0.78
2022-12-03T17:30:53.132Z,0.78
2022-12-03T17:33:24.781Z,0.76
2022-12-03T17:35:56.292Z,0.79
2022-12-03T17:38:28.059Z,0.84
2022-12-03T17:40:59.531Z,0.87
2022-12-03T17:43:31.038Z,0.92
2022-12-03T17:46:02.575Z,0.95
2022-12-03T17:48:35.272Z,0.92
2022-12-03T17:51:07.318Z,0.96
2022-12-03T17:53:38.837Z,1.00
2022-12-03T17:56:10.633Z,1.02
2022-12-03T17:58:42.129Z,1.04
2022-12-03T18:01:14.217Z,1.06
2022-12-03T18:03:45.760Z,1.07
2022-12-03T18:06:17.295Z,1.08
2022-12-03T18:08:48.796Z,1.13
2022-12-03T18:11:20.367Z,1.16
2022-12-03T18:13:52.968Z,1.15
2022-12-03T18:16:25.782Z,1.15
2022-12-03T18:19:00.902Z,1.16
2022-12-03T18:21:36.636Z,1.16
2022-12-03T18:24:10.157Z,1.16
2022-12-03T18:26:40.286Z,1.16
2022-12-03T18:29:11.786Z,1.17
2022-12-03T18:31:43.354Z,1.22
2022-12-03T18:34:14.962Z,1.25
2022-12-03T18:36:46.976Z,1.28
2022-12-03T18:39:25.860Z,1.29
2022-12-03T18:41:57.426Z,1.31
2022-12-03T18:44:29.087Z,1.34
2022-12-03T18:47:02.463Z,1.35
2022-12-03T18:49:32.631Z,1.39
2022-12-03T18:52:04.305Z,1.42
2022-12-03T18:54:36.108Z,1.44
2022-12-03T18:57:07.822Z,1.41
2022-12-03T18:59:39.568Z,1.42
2022-12-03T19:02:38.665Z,1.46
2022-12-03T19:05:10.468Z,1.46
2022-12-03T19:07:43.292Z,1.45
2022-12-03T19:10:15.223Z,1.49
2022-12-03T19:12:46.805Z,1.54
2022-12-03T19:15:18.896Z,1.56
2022-12-03T19:17:52.328Z,1.58
2022-12-03T19:20:23.860Z,1.60
2022-12-03T19:22:55.538Z,1.59
2022-12-03T19:25:27.071Z,1.58
2022-12-03T19:27:58.642Z,1.60
2022-12-03T19:30:30.262Z,1.60
2022-12-03T19:33:01.880Z,1.60
2022-12-03T19:35:33.528Z,1.60
2022-12-03T19:38:05.080Z,1.63
2022-12-03T19:40:36.613Z,1.64
2022-12-03T19:43:08.131Z,1.66
2022-12-03T19:45:39.708Z,1.67
2022-12-03T19:48:11.221Z,1.69
2022-12-03T19:51:02.948Z,1.71
2022-12-03T19:53:42.687Z,1.72
2022-12-03T19:56:16.145Z,1.71
2022-12-03T19:58:48.639Z,1.70
2022-12-03T20:01:22.049Z,1.71
2022-12-03T20:03:55.576Z,1.71
2022-12-03T20:06:30.631Z,1.70
2022-12-03T20:09:04.881Z,1.72
2022-12-03T20:11:37.146Z,1.74
2022-12-03T20:14:10.542Z,1.74
2022-12-03T20:16:42.787Z,1.75
2022-12-03T20:19:17.431Z,1.75
2022-12-03T20:21:49.297Z,1.78
2022-12-03T20:24:20.905Z,1.79
2022-12-03T20:26:52.623Z,1.82
2022-12-03T20:29:24.146Z,1.85
2022-12-03T20:31:56.015Z,1.87
2022-12-03T20:34:27.633Z,1.88
2022-12-03T20:36:59.131Z,1.90
2022-12-03T20:39:30.674Z,1.92
2022-12-03T20:42:02.179Z,1.94
2022-12-03T20:44:33.780Z,1.99
2022-12-03T20:47:05.449Z,2.03
2022-12-03T20:49:40.261Z,2.03
2022-12-03T20:52:12.119Z,2.06
2022-12-03T20:54:43.669Z,2.06
2022-12-03T20:57:15.153Z,2.08
2022-12-03T20:59:46.699Z,2.08
2022-12-03T21:02:18.248Z,2.09
2022-12-03T21:04:50.147Z,2.12
2022-12-03T21:07:22.698Z,2.13
2022-12-03T21:09:54.799Z,2.13
2022-12-03T21:12:28.015Z,2.16
2022-12-03T21:14:59.707Z,2.20
2022-12-03T21:17:31.253Z,2.25
2022-12-03T21:20:02.927Z,2.28
2022-12-03T21:22:34.405Z,2.30
2022-12-03T21:25:06.944Z,2.32
2022-12-03T21:27:38.594Z,2.33
2022-12-03T21:30:11.698Z,2.37
2022-12-03T21:32:43.162Z,2.30
2022-12-03T21:35:14.946Z,2.42
2022-12-03T21:37:46.550Z,2.44
2022-12-03T21:40:18.514Z,2.46
2022-12-03T21:42:50.043Z,2.47
2022-12-03T21:45:25.027Z,2.49
2022-12-03T21:47:56.756Z,2.47
2022-12-03T21:50:28.449Z,2.44
2022-12-03T21:52:59.943Z,2.41
2022-12-03T21:55:31.476Z,2.40
2022-12-03T21:58:03.030Z,2.40
2022-12-03T22:00:34.618Z,2.40
2022-12-03T22:03:06.209Z,2.38
2022-12-03T22:05:40.077Z,2.37
2022-12-03T22:08:13.774Z,2.35
2022-12-03T22:10:45.392Z,2.32
2022-12-03T22:13:16.962Z,2.29
2022-12-03T22:15:48.613Z,2.25
2022-12-03T22:18:20.241Z,2.26
2022-12-03T22:20:51.833Z,2.29
2022-12-03T22:23:23.391Z,2.29
2022-12-03T22:26:02.212Z,2.33
2022-12-03T22:28:34.591Z,2.36
2022-12-03T22:31:09.568Z,2.37
2022-12-03T22:33:41.857Z,2.40
2022-12-03T22:36:20.607Z,2.41
2022-12-03T22:38:54.135Z,2.40
2022-12-03T22:41:25.673Z,2.35
2022-12-03T22:43:57.180Z,2.44
2022-12-03T22:46:28.769Z,2.45
2022-12-03T22:49:06.500Z,2.46
2022-12-03T22:51:38.758Z,2.47
2022-12-03T22:54:11.507Z,2.49
2022-12-03T22:56:42.988Z,2.51
2022-12-03T22:59:14.724Z,2.50
2022-12-03T23:01:46.292Z,2.49
2022-12-03T23:04:17.953Z,2.46
2022-12-03T23:06:49.661Z,2.47
2022-12-03T23:09:21.261Z,2.49
2022-12-03T23:11:52.817Z,2.53
2022-12-03T23:14:24.363Z,2.54
2022-12-03T23:16:55.863Z,2.55
2022-12-03T23:19:27.368Z,2.55
2022-12-03T23:21:59.276Z,2.57
2022-12-03T23:24:30.757Z,2.58
2022-12-03T23:27:02.251Z,2.59
2022-12-03T23:29:35.135Z,2.59
2022-12-03T23:32:06.801Z,2.60
2022-12-03T23:34:38.384Z,2.59
2022-12-03T23:37:10.046Z,2.58
2022-12-03T23:39:41.764Z,2.57
2022-12-03T23:42:13.273Z,2.56
2022-12-03T23:44:44.841Z,2.56
2022-12-03T23:47:17.658Z,2.58
2022-12-03T23:49:49.239Z,2.61
2022-12-03T23:52:20.766Z,2.62
2022-12-03T23:54:52.372Z,2.66
2022-12-03T23:57:23.910Z,2.69
2022-12-03T23:59:55.634Z,2.71
